sensor_id;sensor_type;location;lat;lon;timestamp;pressure;altitude;pressure_sealevel;temperature;humidity
4981;BME280;2507;50.392;7.482;2022-08-21T00:01:26;100939.38;;;17.88;59.96
4981;BME280;2507;50.392;7.482;2022-08-21T00:03:53;100942.34;;;17.85;60.09
4981;BME280;2507;50.392;7.482;2022-08-21T00:06:19;100939.16;;;17.81;60.49
4981;BME280;2507;50.392;7.482;2022-08-21T00:08:45;100934.81;;;17.80;60.42
4981;BME280;2507;50.392;7.482;2022-08-21T00:11:10;100943.06;;;17.77;60.22
4981;BME280;2507;50.392;7.482;2022-08-21T00:13:36;100939.22;;;17.62;60.66
4981;BME280;2507;50.392;7.482;2022-08-21T00:16:02;100941.31;;;17.68;60.48
4981;BME280;2507;50.392;7.482;2022-08-21T00:18:27;100932.25;;;17.61;61.13
4981;BME280;2507;50.392;7.482;2022-08-21T00:20:53;100933.34;;;17.68;60.96
4981;BME280;2507;50.392;7.482;2022-08-21T00:23:18;100933.44;;;17.76;60.45
4981;BME280;2507;50.392;7.482;2022-08-21T00:25:44;100936.78;;;17.78;60.08
4981;BME280;2507;50.392;7.482;2022-08-21T00:28:10;100932.44;;;17.50;60.87
4981;BME280;2507;50.392;7.482;2022-08-21T00:30:36;100928.81;;;17.32;61.26
4981;BME280;2507;50.392;7.482;2022-08-21T00:33:03;100937.88;;;17.29;61.69
4981;BME280;2507;50.392;7.482;2022-08-21T00:35:35;100929.47;;;17.53;60.75
4981;BME280;2507;50.392;7.482;2022-08-21T00:38:02;100932.00;;;17.45;60.77
4981;BME280;2507;50.392;7.482;2022-08-21T00:40:33;100926.41;;;17.48;60.63
4981;BME280;2507;50.392;7.482;2022-08-21T00:42:58;100925.31;;;17.51;60.53
4981;BME280;2507;50.392;7.482;2022-08-21T00:45:24;100926.53;;;17.47;60.32
4981;BME280;2507;50.392;7.482;2022-08-21T00:47:51;100927.03;;;17.13;61.49
4981;BME280;2507;50.392;7.482;2022-08-21T00:50:16;100926.63;;;17.08;61.96
4981;BME280;2507;50.392;7.482;2022-08-21T00:52:43;100918.22;;;17.13;61.80
4981;BME280;2507;50.392;7.482;2022-08-21T00:55:10;100924.63;;;17.20;61.47
4981;BME280;2507;50.392;7.482;2022-08-21T00:57:42;100920.31;;;17.19;61.86
4981;BME280;2507;50.392;7.482;2022-08-21T01:00:13;100921.56;;;17.24;61.26
4981;BME280;2507;50.392;7.482;2022-08-21T01:02:39;100914.47;;;17.15;61.86
4981;BME280;2507;50.392;7.482;2022-08-21T01:05:05;100918.66;;;17.18;61.83
4981;BME280;2507;50.392;7.482;2022-08-21T01:07:31;100921.41;;;17.26;61.75
4981;BME280;2507;50.392;7.482;2022-08-21T01:09:57;100919.53;;;17.09;62.29
4981;BME280;2507;50.392;7.482;2022-08-21T01:12:23;100924.84;;;16.99;62.94
4981;BME280;2507;50.392;7.482;2022-08-21T01:14:48;100923.13;;;17.08;62.17
4981;BME280;2507;50.392;7.482;2022-08-21T01:17:15;100923.97;;;17.08;62.40
4981;BME280;2507;50.392;7.482;2022-08-21T01:19:41;100920.91;;;17.03;62.20
4981;BME280;2507;50.392;7.482;2022-08-21T01:22:06;100924.28;;;16.77;63.17
4981;BME280;2507;50.392;7.482;2022-08-21T01:24:32;100920.38;;;16.71;63.63
4981;BME280;2507;50.392;7.482;2022-08-21T01:26:58;100922.63;;;16.85;62.91
4981;BME280;2507;50.392;7.482;2022-08-21T01:29:44;100914.63;;;17.04;62.13
4981;BME280;2507;50.392;7.482;2022-08-21T01:32:14;100915.06;;;16.90;62.62
4981;BME280;2507;50.392;7.482;2022-08-21T01:34:42;100913.53;;;16.88;62.96
4981;BME280;2507;50.392;7.482;2022-08-21T01:37:08;100914.78;;;16.84;63.27
4981;BME280;2507;50.392;7.482;2022-08-21T01:39:34;100918.56;;;16.81;63.64
4981;BME280;2507;50.392;7.482;2022-08-21T01:42:00;100918.00;;;16.78;63.34
4981;BME280;2507;50.392;7.482;2022-08-21T01:44:26;100913.41;;;16.80;63.68
4981;BME280;2507;50.392;7.482;2022-08-21T01:46:51;100917.75;;;16.62;64.30
4981;BME280;2507;50.392;7.482;2022-08-21T01:49:17;100922.28;;;16.41;65.69
4981;BME280;2507;50.392;7.482;2022-08-21T01:51:42;100919.50;;;16.42;65.92
4981;BME280;2507;50.392;7.482;2022-08-21T01:54:08;100914.50;;;16.58;65.29
4981;BME280;2507;50.392;7.482;2022-08-21T01:56:39;100916.91;;;16.61;65.25
4981;BME280;2507;50.392;7.482;2022-08-21T01:59:05;100910.63;;;16.53;66.07
4981;BME280;2507;50.392;7.482;2022-08-21T02:01:30;100905.59;;;16.59;65.88
4981;BME280;2507;50.392;7.482;2022-08-21T02:03:56;100910.19;;;16.57;64.75
4981;BME280;2507;50.392;7.482;2022-08-21T02:06:21;100912.09;;;16.46;65.06
4981;BME280;2507;50.392;7.482;2022-08-21T02:08:47;100912.69;;;16.49;65.25
4981;BME280;2507;50.392;7.482;2022-08-21T02:11:12;100916.50;;;16.56;64.98
4981;BME280;2507;50.392;7.482;2022-08-21T02:13:37;100919.56;;;16.61;64.84
4981;BME280;2507;50.392;7.482;2022-08-21T02:16:03;100905.03;;;16.56;65.15
4981;BME280;2507;50.392;7.482;2022-08-21T02:18:28;100908.66;;;16.55;65.10
4981;BME280;2507;50.392;7.482;2022-08-21T02:20:54;100905.34;;;16.53;64.98
4981;BME280;2507;50.392;7.482;2022-08-21T02:23:20;100904.16;;;16.46;65.36
4981;BME280;2507;50.392;7.482;2022-08-21T02:25:45;100900.13;;;16.42;65.11
4981;BME280;2507;50.392;7.482;2022-08-21T02:28:13;100901.50;;;16.46;65.21
4981;BME280;2507;50.392;7.482;2022-08-21T02:30:42;100905.28;;;16.43;65.25
4981;BME280;2507;50.392;7.482;2022-08-21T02:33:08;100907.66;;;16.27;64.73
4981;BME280;2507;50.392;7.482;2022-08-21T02:35:35;100899.38;;;16.11;65.12
4981;BME280;2507;50.392;7.482;2022-08-21T02:38:03;100908.56;;;16.07;65.38
4981;BME280;2507;50.392;7.482;2022-08-21T02:40:32;100907.72;;;16.06;65.18
4981;BME280;2507;50.392;7.482;2022-08-21T02:42:59;100899.50;;;16.00;65.42
4981;BME280;2507;50.392;7.482;2022-08-21T02:45:25;100902.53;;;15.95;65.59
4981;BME280;2507;50.392;7.482;2022-08-21T02:47:53;100908.56;;;16.07;65.62
4981;BME280;2507;50.392;7.482;2022-08-21T02:50:37;100906.63;;;16.18;65.24
4981;BME280;2507;50.392;7.482;2022-08-21T02:53:04;100900.50;;;16.08;64.71
4981;BME280;2507;50.392;7.482;2022-08-21T02:55:31;100899.38;;;16.01;65.15
4981;BME280;2507;50.392;7.482;2022-08-21T02:57:58;100896.50;;;15.74;66.07
4981;BME280;2507;50.392;7.482;2022-08-21T03:00:25;100891.75;;;15.68;66.80
4981;BME280;2507;50.392;7.482;2022-08-21T03:02:51;100906.41;;;15.82;66.25
4981;BME280;2507;50.392;7.482;2022-08-21T03:05:18;100906.19;;;15.94;65.28
4981;BME280;2507;50.392;7.482;2022-08-21T03:07:46;100904.03;;;15.79;66.82
4981;BME280;2507;50.392;7.482;2022-08-21T03:10:12;100905.91;;;15.97;66.36
4981;BME280;2507;50.392;7.482;2022-08-21T03:12:38;100906.31;;;16.02;66.00
4981;BME280;2507;50.392;7.482;2022-08-21T03:15:09;100903.84;;;16.10;65.67
4981;BME280;2507;50.392;7.482;2022-08-21T03:17:35;100898.91;;;15.96;65.72
4981;BME280;2507;50.392;7.482;2022-08-21T03:20:00;100901.53;;;15.77;66.11
4981;BME280;2507;50.392;7.482;2022-08-21T03:22:26;100901.75;;;15.65;66.78
4981;BME280;2507;50.392;7.482;2022-08-21T03:24:52;100907.72;;;15.57;67.17
4981;BME280;2507;50.392;7.482;2022-08-21T03:27:17;100894.63;;;15.56;67.50
4981;BME280;2507;50.392;7.482;2022-08-21T03:29:43;100899.97;;;15.65;67.06
4981;BME280;2507;50.392;7.482;2022-08-21T03:32:08;100902.31;;;15.68;67.13
4981;BME280;2507;50.392;7.482;2022-08-21T03:34:35;100906.63;;;15.60;67.40
4981;BME280;2507;50.392;7.482;2022-08-21T03:37:00;100897.13;;;15.57;67.33
4981;BME280;2507;50.392;7.482;2022-08-21T03:39:25;100912.72;;;15.60;66.79
4981;BME280;2507;50.392;7.482;2022-08-21T03:41:51;100910.88;;;15.51;67.70
4981;BME280;2507;50.392;7.482;2022-08-21T03:44:17;100912.91;;;15.38;68.30
4981;BME280;2507;50.392;7.482;2022-08-21T03:46:42;100912.25;;;15.46;68.34
4981;BME280;2507;50.392;7.482;2022-08-21T03:49:08;100915.28;;;15.20;68.51
4981;BME280;2507;50.392;7.482;2022-08-21T03:51:33;100917.63;;;15.14;69.35
4981;BME280;2507;50.392;7.482;2022-08-21T03:53:58;100911.38;;;14.94;69.61
4981;BME280;2507;50.392;7.482;2022-08-21T03:56:24;100911.59;;;14.91;70.14
4981;BME280;2507;50.392;7.482;2022-08-21T03:58:49;100913.94;;;14.85;70.48
4981;BME280;2507;50.392;7.482;2022-08-21T04:01:14;100913.69;;;15.08;70.04
4981;BME280;2507;50.392;7.482;2022-08-21T04:03:40;100921.78;;;15.16;68.37
4981;BME280;2507;50.392;7.482;2022-08-21T04:06:06;100910.53;;;15.14;68.45
4981;BME280;2507;50.392;7.482;2022-08-21T04:08:32;100926.56;;;15.02;68.80
4981;BME280;2507;50.392;7.482;2022-08-21T04:10:58;100924.63;;;15.04;69.21
4981;BME280;2507;50.392;7.482;2022-08-21T04:13:24;100932.06;;;15.10;68.69
4981;BME280;2507;50.392;7.482;2022-08-21T04:15:49;100929.19;;;15.02;69.10
4981;BME280;2507;50.392;7.482;2022-08-21T04:18:14;100931.75;;;15.03;68.69
4981;BME280;2507;50.392;7.482;2022-08-21T04:20:41;100935.19;;;15.04;68.80
4981;BME280;2507;50.392;7.482;2022-08-21T04:23:07;100937.97;;;15.02;69.00
4981;BME280;2507;50.392;7.482;2022-08-21T04:25:33;100937.53;;;14.97;69.12
4981;BME280;2507;50.392;7.482;2022-08-21T04:27:58;100937.97;;;15.02;68.46
4981;BME280;2507;50.392;7.482;2022-08-21T04:30:24;100946.66;;;14.73;69.58
4981;BME280;2507;50.392;7.482;2022-08-21T04:32:50;100939.69;;;14.72;70.41
4981;BME280;2507;50.392;7.482;2022-08-21T04:35:19;100946.00;;;14.80;70.13
4981;BME280;2507;50.392;7.482;2022-08-21T04:37:45;100954.75;;;14.92;69.49
4981;BME280;2507;50.392;7.482;2022-08-21T04:40:13;100949.72;;;14.89;69.30
4981;BME280;2507;50.392;7.482;2022-08-21T04:42:45;100955.00;;;15.09;68.85
4981;BME280;2507;50.392;7.482;2022-08-21T04:45:30;100956.25;;;15.05;69.37
4981;BME280;2507;50.392;7.482;2022-08-21T04:47:57;100954.09;;;15.20;69.61
4981;BME280;2507;50.392;7.482;2022-08-21T04:50:28;100957.84;;;15.59;68.42
4981;BME280;2507;50.392;7.482;2022-08-21T04:52:55;100955.66;;;16.03;67.11
4981;BME280;2507;50.392;7.482;2022-08-21T04:55:21;100957.38;;;16.14;66.52
4981;BME280;2507;50.392;7.482;2022-08-21T04:57:47;100958.03;;;16.56;66.40
4981;BME280;2507;50.392;7.482;2022-08-21T05:00:16;100956.66;;;16.99;63.62
4981;BME280;2507;50.392;7.482;2022-08-21T05:02:43;100955.84;;;17.64;62.07
4981;BME280;2507;50.392;7.482;2022-08-21T05:05:09;100959.66;;;18.16;60.57
4981;BME280;2507;50.392;7.482;2022-08-21T05:07:35;100957.22;;;19.02;59.43
4981;BME280;2507;50.392;7.482;2022-08-21T05:10:02;100949.91;;;19.73;55.64
4981;BME280;2507;50.392;7.482;2022-08-21T05:12:28;100953.22;;;20.43;53.99
4981;BME280;2507;50.392;7.482;2022-08-21T05:14:55;100944.09;;;20.61;51.66
4981;BME280;2507;50.392;7.482;2022-08-21T05:17:20;100954.75;;;20.61;51.34
4981;BME280;2507;50.392;7.482;2022-08-21T05:19:46;100962.00;;;21.17;49.56
4981;BME280;2507;50.392;7.482;2022-08-21T05:22:19;100967.38;;;21.88;48.46
4981;BME280;2507;50.392;7.482;2022-08-21T05:24:44;100960.13;;;22.96;45.91
4981;BME280;2507;50.392;7.482;2022-08-21T05:27:09;100960.00;;;23.64;44.39
4981;BME280;2507;50.392;7.482;2022-08-21T05:29:34;100969.28;;;24.20;42.68
4981;BME280;2507;50.392;7.482;2022-08-21T05:32:00;100967.41;;;24.06;43.08
4981;BME280;2507;50.392;7.482;2022-08-21T05:34:25;100962.00;;;24.35;42.97
4981;BME280;2507;50.392;7.482;2022-08-21T05:36:50;100956.19;;;24.67;42.12
4981;BME280;2507;50.392;7.482;2022-08-21T05:39:15;100955.16;;;25.10;41.46
4981;BME280;2507;50.392;7.482;2022-08-21T05:41:41;100967.59;;;26.01;39.78
4981;BME280;2507;50.392;7.482;2022-08-21T05:44:06;100963.38;;;26.99;38.03
4981;BME280;2507;50.392;7.482;2022-08-21T05:46:32;100957.19;;;27.32;36.99
4981;BME280;2507;50.392;7.482;2022-08-21T05:48:57;100962.72;;;27.69;36.92
4981;BME280;2507;50.392;7.482;2022-08-21T05:51:22;100949.34;;;28.20;35.85
4981;BME280;2507;50.392;7.482;2022-08-21T05:53:48;100950.97;;;28.21;36.10
4981;BME280;2507;50.392;7.482;2022-08-21T05:56:13;100955.19;;;28.48;35.51
4981;BME280;2507;50.392;7.482;2022-08-21T05:58:39;100946.09;;;29.36;35.03
4981;BME280;2507;50.392;7.482;2022-08-21T06:01:04;100951.19;;;30.23;33.68
4981;BME280;2507;50.392;7.482;2022-08-21T06:03:32;100952.63;;;30.55;32.95
4981;BME280;2507;50.392;7.482;2022-08-21T06:05:59;100942.47;;;30.03;33.30
4981;BME280;2507;50.392;7.482;2022-08-21T06:08:24;100945.94;;;29.74;33.89
4981;BME280;2507;50.392;7.482;2022-08-21T06:10:52;100942.34;;;29.55;33.91
4981;BME280;2507;50.392;7.482;2022-08-21T06:13:18;100945.84;;;29.80;33.79
4981;BME280;2507;50.392;7.482;2022-08-21T06:15:44;100941.78;;;29.71;33.39
4981;BME280;2507;50.392;7.482;2022-08-21T06:18:10;100937.44;;;29.70;33.63
4981;BME280;2507;50.392;7.482;2022-08-21T06:20:36;100936.38;;;29.89;33.13
4981;BME280;2507;50.392;7.482;2022-08-21T06:23:02;100937.13;;;30.14;32.97
4981;BME280;2507;50.392;7.482;2022-08-21T06:25:28;100949.50;;;30.40;32.65
4981;BME280;2507;50.392;7.482;2022-08-21T06:28:01;100951.66;;;30.79;31.94
4981;BME280;2507;50.392;7.482;2022-08-21T06:30:26;100944.31;;;30.98;31.77
4981;BME280;2507;50.392;7.482;2022-08-21T06:32:52;100942.78;;;31.83;30.96
4981;BME280;2507;50.392;7.482;2022-08-21T06:35:17;100938.06;;;31.90;30.64
4981;BME280;2507;50.392;7.482;2022-08-21T06:37:42;100942.69;;;31.32;30.45
4981;BME280;2507;50.392;7.482;2022-08-21T06:40:08;100934.09;;;31.46;31.02
4981;BME280;2507;50.392;7.482;2022-08-21T06:42:33;100933.63;;;31.38;30.57
4981;BME280;2507;50.392;7.482;2022-08-21T06:44:59;100936.22;;;30.80;31.17
4981;BME280;2507;50.392;7.482;2022-08-21T06:47:24;100933.34;;;30.63;31.59
4981;BME280;2507;50.392;7.482;2022-08-21T06:49:49;100932.06;;;30.77;31.43
4981;BME280;2507;50.392;7.482;2022-08-21T06:52:15;100927.81;;;31.34;30.94
4981;BME280;2507;50.392;7.482;2022-08-21T06:54:40;100933.69;;;31.31;30.69
4981;BME280;2507;50.392;7.482;2022-08-21T06:57:06;100930.44;;;31.41;30.80
4981;BME280;2507;50.392;7.482;2022-08-21T06:59:31;100930.66;;;32.53;29.10
4981;BME280;2507;50.392;7.482;2022-08-21T07:01:58;100933.75;;;32.17;30.09
4981;BME280;2507;50.392;7.482;2022-08-21T07:04:23;100931.28;;;32.16;29.45
4981;BME280;2507;50.392;7.482;2022-08-21T07:06:48;100934.69;;;31.60;30.27
4981;BME280;2507;50.392;7.482;2022-08-21T07:09:14;100934.31;;;31.22;30.60
4981;BME280;2507;50.392;7.482;2022-08-21T07:11:39;100928.41;;;31.25;30.96
4981;BME280;2507;50.392;7.482;2022-08-21T07:14:05;100929.78;;;32.64;29.49
4981;BME280;2507;50.392;7.482;2022-08-21T07:16:30;100921.25;;;33.77;27.72
4981;BME280;2507;50.392;7.482;2022-08-21T07:18:55;100914.28;;;34.08;27.33
4981;BME280;2507;50.392;7.482;2022-08-21T07:21:21;100914.94;;;33.55;28.49
4981;BME280;2507;50.392;7.482;2022-08-21T07:23:49;100906.91;;;33.27;28.15
4981;BME280;2507;50.392;7.482;2022-08-21T07:26:18;100914.03;;;33.87;28.20
4981;BME280;2507;50.392;7.482;2022-08-21T07:28:44;100906.06;;;34.03;27.34
4981;BME280;2507;50.392;7.482;2022-08-21T07:31:10;100909.28;;;33.78;27.86
4981;BME280;2507;50.392;7.482;2022-08-21T07:33:39;100905.31;;;33.85;28.34
4981;BME280;2507;50.392;7.482;2022-08-21T07:36:05;100892.66;;;33.96;27.76
4981;BME280;2507;50.392;7.482;2022-08-21T07:38:30;100898.66;;;34.73;26.85
4981;BME280;2507;50.392;7.482;2022-08-21T07:40:56;100899.53;;;33.44;27.73
4981;BME280;2507;50.392;7.482;2022-08-21T07:43:24;100896.19;;;33.20;28.37
4981;BME280;2507;50.392;7.482;2022-08-21T07:45:50;100892.66;;;33.96;28.15
4981;BME280;2507;50.392;7.482;2022-08-21T07:48:15;100891.91;;;32.91;29.10
4981;BME280;2507;50.392;7.482;2022-08-21T07:50:42;100890.66;;;32.09;30.10
4981;BME280;2507;50.392;7.482;2022-08-21T07:53:07;100891.66;;;31.91;30.55
4981;BME280;2507;50.392;7.482;2022-08-21T07:55:33;100885.16;;;32.21;29.97
4981;BME280;2507;50.392;7.482;2022-08-21T07:57:58;100887.78;;;31.76;29.88
4981;BME280;2507;50.392;7.482;2022-08-21T08:00:25;100887.00;;;31.18;30.90
4981;BME280;2507;50.392;7.482;2022-08-21T08:02:51;100889.22;;;30.97;31.13
4981;BME280;2507;50.392;7.482;2022-08-21T08:05:20;100890.53;;;31.30;31.00
4981;BME280;2507;50.392;7.482;2022-08-21T08:07:46;100890.13;;;32.96;29.13
4981;BME280;2507;50.392;7.482;2022-08-21T08:10:12;100892.78;;;31.33;30.48
4981;BME280;2507;50.392;7.482;2022-08-21T08:12:39;100891.91;;;30.45;32.18
4981;BME280;2507;50.392;7.482;2022-08-21T08:15:09;100895.22;;;30.88;31.10
4981;BME280;2507;50.392;7.482;2022-08-21T08:17:35;100885.44;;;30.46;32.33
4981;BME280;2507;50.392;7.482;2022-08-21T08:20:01;100887.59;;;31.20;30.99
4981;BME280;2507;50.392;7.482;2022-08-21T08:22:27;100892.53;;;32.20;30.24
4981;BME280;2507;50.392;7.482;2022-08-21T08:24:53;100895.25;;;30.99;31.67
4981;BME280;2507;50.392;7.482;2022-08-21T08:27:18;100896.13;;;29.57;33.17
4981;BME280;2507;50.392;7.482;2022-08-21T08:29:44;100887.19;;;30.10;33.04
4981;BME280;2507;50.392;7.482;2022-08-21T08:32:10;100890.16;;;30.21;32.22
4981;BME280;2507;50.392;7.482;2022-08-21T08:34:36;100893.25;;;30.54;32.33
4981;BME280;2507;50.392;7.482;2022-08-21T08:37:03;100884.56;;;29.86;33.10
4981;BME280;2507;50.392;7.482;2022-08-21T08:39:29;100874.78;;;29.67;33.68
4981;BME280;2507;50.392;7.482;2022-08-21T08:42:10;100876.59;;;28.25;35.34
4981;BME280;2507;50.392;7.482;2022-08-21T08:44:42;100860.66;;;28.17;35.58
4981;BME280;2507;50.392;7.482;2022-08-21T08:47:10;100863.34;;;28.55;35.12
4981;BME280;2507;50.392;7.482;2022-08-21T08:52:28;100856.19;;;27.91;36.22
4981;BME280;2507;50.392;7.482;2022-08-21T08:55:08;100851.81;;;27.97;36.47
4981;BME280;2507;50.392;7.482;2022-08-21T08:57:36;100848.03;;;28.73;35.44
4981;BME280;2507;50.392;7.482;2022-08-21T09:00:08;100851.34;;;28.75;35.29
4981;BME280;2507;50.392;7.482;2022-08-21T09:02:38;100853.25;;;28.68;35.11
4981;BME280;2507;50.392;7.482;2022-08-21T09:05:04;100854.03;;;28.44;35.75
4981;BME280;2507;50.392;7.482;2022-08-21T09:10:50;100853.53;;;27.85;36.39
4981;BME280;2507;50.392;7.482;2022-08-21T09:21:52;100846.47;;;27.00;37.65
4981;BME280;2507;50.392;7.482;2022-08-21T09:24:32;100846.25;;;27.08;36.81
4981;BME280;2507;50.392;7.482;2022-08-21T09:27:13;100834.22;;;27.31;35.23
4981;BME280;2507;50.392;7.482;2022-08-21T09:29:42;100833.53;;;27.48;35.14
4981;BME280;2507;50.392;7.482;2022-08-21T09:32:22;100834.16;;;28.01;33.93
4981;BME280;2507;50.392;7.482;2022-08-21T09:35:11;100831.50;;;27.44;34.46
4981;BME280;2507;50.392;7.482;2022-08-21T09:37:57;100833.38;;;27.17;34.57
4981;BME280;2507;50.392;7.482;2022-08-21T09:45:36;100813.69;;;26.25;36.67
4981;BME280;2507;50.392;7.482;2022-08-21T09:48:27;100805.41;;;26.33;37.07
4981;BME280;2507;50.392;7.482;2022-08-21T09:51:06;100806.72;;;26.76;36.46
4981;BME280;2507;50.392;7.482;2022-08-21T09:53:33;100802.88;;;27.23;35.23
4981;BME280;2507;50.392;7.482;2022-08-21T09:56:03;100794.94;;;27.54;35.21
4981;BME280;2507;50.392;7.482;2022-08-21T09:58:49;100790.78;;;27.52;35.07
4981;BME280;2507;50.392;7.482;2022-08-21T10:01:25;100796.44;;;27.37;34.78
4981;BME280;2507;50.392;7.482;2022-08-21T10:04:10;100786.63;;;27.56;34.23
4981;BME280;2507;50.392;7.482;2022-08-21T10:06:36;100789.63;;;27.15;35.03
4981;BME280;2507;50.392;7.482;2022-08-21T10:09:10;100776.41;;;26.94;35.22
4981;BME280;2507;50.392;7.482;2022-08-21T10:11:36;100782.16;;;27.17;34.85
4981;BME280;2507;50.392;7.482;2022-08-21T10:14:16;100774.72;;;27.06;35.49
4981;BME280;2507;50.392;7.482;2022-08-21T10:17:07;100775.22;;;26.70;36.18
4981;BME280;2507;50.392;7.482;2022-08-21T10:22:50;100769.69;;;27.22;35.14
4981;BME280;2507;50.392;7.482;2022-08-21T10:25:35;100755.72;;;26.81;35.62
4981;BME280;2507;50.392;7.482;2022-08-21T10:28:36;100762.97;;;26.48;36.46
4981;BME280;2507;50.392;7.482;2022-08-21T10:36:25;100751.00;;;27.41;35.14
4981;BME280;2507;50.392;7.482;2022-08-21T10:39:02;100750.78;;;27.49;34.83
4981;BME280;2507;50.392;7.482;2022-08-21T10:42:13;100748.78;;;27.11;34.97
4981;BME280;2507;50.392;7.482;2022-08-21T10:44:59;100739.22;;;27.29;35.20
4981;BME280;2507;50.392;7.482;2022-08-21T10:47:34;100748.97;;;27.74;34.16
4981;BME280;2507;50.392;7.482;2022-08-21T10:58:42;100743.50;;;28.43;33.23
4981;BME280;2507;50.392;7.482;2022-08-21T11:01:24;100752.19;;;27.95;33.71
4981;BME280;2507;50.392;7.482;2022-08-21T11:04:16;100748.31;;;27.78;34.26
4981;BME280;2507;50.392;7.482;2022-08-21T11:06:48;100747.06;;;27.81;33.87
4981;BME280;2507;50.392;7.482;2022-08-21T11:09:19;100747.19;;;27.99;33.46
4981;BME280;2507;50.392;7.482;2022-08-21T11:12:17;100741.78;;;27.55;34.14
4981;BME280;2507;50.392;7.482;2022-08-21T11:14:55;100729.84;;;27.82;34.05
4981;BME280;2507;50.392;7.482;2022-08-21T11:17:30;100737.91;;;27.44;34.31
4981;BME280;2507;50.392;7.482;2022-08-21T11:20:28;100732.00;;;27.16;35.37
4981;BME280;2507;50.392;7.482;2022-08-21T11:23:04;100734.59;;;27.42;34.49
4981;BME280;2507;50.392;7.482;2022-08-21T11:25:38;100727.69;;;27.59;34.34
4981;BME280;2507;50.392;7.482;2022-08-21T11:28:24;100729.47;;;27.72;33.76
4981;BME280;2507;50.392;7.482;2022-08-21T11:33:45;100723.06;;;28.78;32.66
4981;BME280;2507;50.392;7.482;2022-08-21T11:39:04;100717.53;;;29.27;31.27
4981;BME280;2507;50.392;7.482;2022-08-21T11:41:37;100719.75;;;28.94;32.04
4981;BME280;2507;50.392;7.482;2022-08-21T11:44:24;100719.75;;;28.76;32.07
4981;BME280;2507;50.392;7.482;2022-08-21T11:49:46;100713.72;;;28.56;32.49
4981;BME280;2507;50.392;7.482;2022-08-21T11:52:16;100710.22;;;28.91;32.12
4981;BME280;2507;50.392;7.482;2022-08-21T11:54:57;100707.88;;;29.31;31.44
4981;BME280;2507;50.392;7.482;2022-08-21T11:57:27;100716.69;;;29.74;31.15
4981;BME280;2507;50.392;7.482;2022-08-21T12:00:11;100710.91;;;30.12;30.89
4981;BME280;2507;50.392;7.482;2022-08-21T12:02:44;100701.50;;;30.26;30.15
4981;BME280;2507;50.392;7.482;2022-08-21T12:05:23;100693.53;;;30.54;29.47
4981;BME280;2507;50.392;7.482;2022-08-21T12:08:00;100695.34;;;29.96;29.84
4981;BME280;2507;50.392;7.482;2022-08-21T12:10:36;100695.09;;;29.68;30.33
4981;BME280;2507;50.392;7.482;2022-08-21T12:13:21;100690.03;;;30.01;30.41
4981;BME280;2507;50.392;7.482;2022-08-21T12:15:46;100683.84;;;30.35;30.08
4981;BME280;2507;50.392;7.482;2022-08-21T12:18:28;100680.06;;;30.48;29.57
4981;BME280;2507;50.392;7.482;2022-08-21T12:21:26;100689.03;;;30.83;29.45
4981;BME280;2507;50.392;7.482;2022-08-21T12:24:17;100686.59;;;31.09;28.82
4981;BME280;2507;50.392;7.482;2022-08-21T12:26:52;100687.00;;;30.78;29.04
4981;BME280;2507;50.392;7.482;2022-08-21T12:29:25;100682.06;;;30.64;28.59
4981;BME280;2507;50.392;7.482;2022-08-21T12:31:56;100677.13;;;30.61;29.28
4981;BME280;2507;50.392;7.482;2022-08-21T12:34:27;100681.44;;;31.08;28.86
4981;BME280;2507;50.392;7.482;2022-08-21T12:37:00;100671.22;;;30.64;29.88
4981;BME280;2507;50.392;7.482;2022-08-21T12:39:31;100664.47;;;29.97;30.27
4981;BME280;2507;50.392;7.482;2022-08-21T12:42:15;100674.34;;;29.50;30.76
4981;BME280;2507;50.392;7.482;2022-08-21T12:44:57;100667.28;;;28.83;31.50
4981;BME280;2507;50.392;7.482;2022-08-21T12:47:48;100668.69;;;28.68;31.37
4981;BME280;2507;50.392;7.482;2022-08-21T12:50:42;100662.69;;;28.84;31.63
4981;BME280;2507;50.392;7.482;2022-08-21T12:53:28;100657.97;;;29.15;31.08
4981;BME280;2507;50.392;7.482;2022-08-21T12:55:56;100660.06;;;29.13;31.00
4981;BME280;2507;50.392;7.482;2022-08-21T12:58:27;100651.94;;;29.13;30.64
4981;BME280;2507;50.392;7.482;2022-08-21T13:01:02;100654.97;;;29.24;30.60
4981;BME280;2507;50.392;7.482;2022-08-21T13:03:28;100646.91;;;29.47;30.57
4981;BME280;2507;50.392;7.482;2022-08-21T13:05:54;100648.78;;;29.87;30.03
4981;BME280;2507;50.392;7.482;2022-08-21T13:08:21;100650.00;;;30.03;29.33
4981;BME280;2507;50.392;7.482;2022-08-21T13:10:52;100641.41;;;30.06;29.53
4981;BME280;2507;50.392;7.482;2022-08-21T13:13:24;100637.34;;;30.38;29.05
4981;BME280;2507;50.392;7.482;2022-08-21T13:15:57;100638.84;;;30.57;28.85
4981;BME280;2507;50.392;7.482;2022-08-21T13:18:26;100639.31;;;30.54;28.69
4981;BME280;2507;50.392;7.482;2022-08-21T13:21:11;100630.38;;;30.42;28.62
4981;BME280;2507;50.392;7.482;2022-08-21T13:23:36;100635.53;;;30.55;29.08
4981;BME280;2507;50.392;7.482;2022-08-21T13:26:15;100632.47;;;30.63;28.86
4981;BME280;2507;50.392;7.482;2022-08-21T13:28:41;100627.63;;;30.65;28.78
4981;BME280;2507;50.392;7.482;2022-08-21T13:31:08;100631.78;;;30.33;29.36
4981;BME280;2507;50.392;7.482;2022-08-21T13:33:40;100629.72;;;30.75;28.10
4981;BME280;2507;50.392;7.482;2022-08-21T13:36:20;100624.44;;;30.57;28.80
4981;BME280;2507;50.392;7.482;2022-08-21T13:38:50;100622.13;;;30.26;29.29
4981;BME280;2507;50.392;7.482;2022-08-21T13:41:35;100621.72;;;29.87;29.52
4981;BME280;2507;50.392;7.482;2022-08-21T13:44:18;100621.28;;;29.49;30.09
4981;BME280;2507;50.392;7.482;2022-08-21T13:46:45;100619.94;;;29.29;30.39
4981;BME280;2507;50.392;7.482;2022-08-21T13:49:13;100609.00;;;29.35;29.69
4981;BME280;2507;50.392;7.482;2022-08-21T13:51:39;100620.59;;;29.24;29.73
4981;BME280;2507;50.392;7.482;2022-08-21T13:56:43;100612.06;;;29.39;30.28
4981;BME280;2507;50.392;7.482;2022-08-21T13:59:09;100608.09;;;29.41;29.65
4981;BME280;2507;50.392;7.482;2022-08-21T14:01:53;100606.19;;;29.71;29.50
4981;BME280;2507;50.392;7.482;2022-08-21T14:04:39;100614.22;;;29.48;30.04
4981;BME280;2507;50.392;7.482;2022-08-21T14:07:17;100599.53;;;29.56;29.72
4981;BME280;2507;50.392;7.482;2022-08-21T14:09:45;100602.09;;;30.03;28.41
4981;BME280;2507;50.392;7.482;2022-08-21T14:12:26;100610.34;;;30.20;28.57